createdAt,value
2018-12-23T00:01:37.245Z,6.47
2018-12-23T00:04:05.991Z,6.60
2018-12-23T00:06:40.918Z,7.23
2018-12-23T00:09:09.853Z,7.20
2018-12-23T00:11:37.999Z,7.23
2018-12-23T00:14:06.766Z,8.30
2018-12-23T00:16:34.895Z,7.73
2018-12-23T00:19:03.210Z,8.27
2018-12-23T00:21:31.352Z,7.80
2018-12-23T00:23:59.534Z,6.93
2018-12-23T00:26:28.777Z,7.73
2018-12-23T00:28:56.947Z,7.63
2018-12-23T00:31:26.247Z,7.70
2018-12-23T00:33:54.389Z,7.47
2018-12-23T00:36:25.839Z,6.33
2018-12-23T00:38:54.892Z,8.03
2018-12-23T00:41:23.000Z,8.33
2018-12-23T00:43:58.296Z,8.40
2018-12-23T00:46:26.477Z,8.43
2018-12-23T00:48:54.629Z,7.77
2018-12-23T00:51:23.591Z,7.83
2018-12-23T00:53:53.651Z,7.30
2018-12-23T00:56:21.768Z,6.93
2018-12-23T00:58:49.851Z,7.23
2018-12-23T01:01:18.068Z,7.13
2018-12-23T01:03:46.354Z,6.27
2018-12-23T01:06:14.508Z,7.13
2018-12-23T01:08:42.702Z,7.30
2018-12-23T01:11:10.817Z,7.43
2018-12-23T01:13:38.977Z,6.53
2018-12-23T01:16:07.754Z,7.13
2018-12-23T01:18:35.996Z,7.53
2018-12-23T01:21:04.348Z,7.80
2018-12-23T01:23:32.431Z,7.80
2018-12-23T01:26:11.924Z,8.43
2018-12-23T01:28:42.060Z,8.47
2018-12-23T01:31:27.564Z,8.03
2018-12-23T01:33:56.171Z,8.40
2018-12-23T01:36:25.300Z,8.33
2018-12-23T01:38:53.780Z,8.37
2018-12-23T01:41:22.487Z,8.63
2018-12-23T01:43:51.758Z,7.70
2018-12-23T01:46:19.985Z,8.20
2018-12-23T01:48:48.256Z,8.17
2018-12-23T01:51:16.371Z,8.27
2018-12-23T01:53:44.491Z,8.23
2018-12-23T01:56:12.731Z,7.80
2018-12-23T01:58:41.468Z,7.58
2018-12-23T02:01:10.020Z,7.42
2018-12-23T02:03:38.179Z,7.90
2018-12-23T02:06:06.395Z,6.60
2018-12-23T02:08:34.571Z,7.67
2018-12-23T02:11:02.712Z,8.70
2018-12-23T02:13:30.873Z,8.10
2018-12-23T02:15:59.763Z,7.90
2018-12-23T02:18:27.861Z,8.48
2018-12-23T02:20:56.715Z,7.33
2018-12-23T02:23:24.884Z,7.70
2018-12-23T02:25:53.098Z,7.33
2018-12-23T02:28:21.280Z,6.87
2018-12-23T02:30:50.816Z,8.13
2018-12-23T02:33:19.101Z,7.70
2018-12-23T02:35:55.268Z,9.83
2018-12-23T02:38:17.490Z,9.70
2018-12-23T02:40:45.583Z,9.43
2018-12-23T02:43:13.696Z,9.93
2018-12-23T02:45:41.792Z,9.93
2018-12-23T02:48:09.909Z,9.23
2018-12-23T02:50:38.037Z,9.77
2018-12-23T02:53:06.719Z,8.88
2018-12-23T02:55:34.861Z,9.90
2018-12-23T02:58:02.967Z,9.15
2018-12-23T03:00:31.062Z,8.27
2018-12-23T03:02:59.855Z,8.95
2018-12-23T03:05:27.942Z,8.70
2018-12-23T03:07:56.058Z,8.23
2018-12-23T03:10:24.160Z,8.93
2018-12-23T03:12:52.302Z,8.23
2018-12-23T03:15:20.566Z,7.57
2018-12-23T03:17:52.148Z,7.63
2018-12-23T03:20:20.586Z,7.67
2018-12-23T03:22:48.762Z,6.50
2018-12-23T03:25:16.825Z,7.40
2018-12-23T03:27:45.023Z,6.63
2018-12-23T03:30:13.223Z,7.33
2018-12-23T03:32:42.267Z,7.53
2018-12-23T03:35:14.075Z,7.07
2018-12-23T03:37:42.192Z,6.70
2018-12-23T03:40:10.457Z,7.37
2018-12-23T03:42:39.763Z,6.83
2018-12-23T03:45:08.021Z,6.20
2018-12-23T03:47:38.230Z,8.00
2018-12-23T03:50:07.449Z,6.80
2018-12-23T03:52:35.547Z,6.13
2018-12-23T03:55:03.703Z,6.85
2018-12-23T03:57:32.899Z,5.53
2018-12-23T04:00:01.094Z,6.00
2018-12-23T04:02:29.188Z,5.65
2018-12-23T04:04:57.380Z,5.77
2018-12-23T04:07:25.567Z,7.23
2018-12-23T04:09:53.637Z,5.70
2018-12-23T04:12:21.838Z,5.77
2018-12-23T04:14:50.844Z,5.83
2018-12-23T04:17:19.073Z,5.53
2018-12-23T04:19:47.166Z,5.63
2018-12-23T04:22:17.053Z,5.67
2018-12-23T04:24:45.334Z,5.83
2018-12-23T04:27:13.535Z,5.50
2018-12-23T04:29:41.704Z,5.33
2018-12-23T04:32:09.853Z,4.97
2018-12-23T04:34:37.957Z,4.90
2018-12-23T04:37:06.315Z,4.63
2018-12-23T04:39:34.454Z,4.97
2018-12-23T04:42:02.575Z,5.17
2018-12-23T04:44:30.668Z,4.93
2018-12-23T04:46:58.792Z,4.63
2018-12-23T04:49:26.914Z,4.67
2018-12-23T04:51:54.978Z,4.77
2018-12-23T04:54:23.143Z,5.20
2018-12-23T04:56:52.363Z,4.77
2018-12-23T04:59:20.665Z,5.27
2018-12-23T05:01:48.894Z,5.27
2018-12-23T05:04:17.073Z,5.15
2018-12-23T05:06:45.199Z,6.17
2018-12-23T05:09:13.326Z,4.80
2018-12-23T05:11:41.547Z,5.90
2018-12-23T05:14:09.729Z,6.27
2018-12-23T05:16:37.826Z,5.37
2018-12-23T05:19:06.591Z,5.60
2018-12-23T05:21:37.859Z,5.60
2018-12-23T05:24:07.985Z,5.40
2018-12-23T05:26:36.184Z,5.08
2018-12-23T05:29:04.509Z,5.83
2018-12-23T05:31:33.273Z,5.67
2018-12-23T05:34:01.401Z,5.22
2018-12-23T05:36:29.558Z,5.03
2018-12-23T05:38:57.656Z,5.70
2018-12-23T05:41:26.901Z,5.50
2018-12-23T05:43:59.291Z,5.03
2018-12-23T05:46:27.596Z,4.63
2018-12-23T05:48:55.675Z,5.47
2018-12-23T05:51:23.825Z,4.63
2018-12-23T05:53:53.059Z,4.85
2018-12-23T05:56:21.164Z,5.17
2018-12-23T05:58:49.888Z,5.10
2018-12-23T06:01:18.694Z,4.53
2018-12-23T06:03:46.944Z,4.50
2018-12-23T06:06:15.115Z,4.17
2018-12-23T06:08:43.234Z,5.20
2018-12-23T06:11:11.410Z,4.20
2018-12-23T06:13:39.579Z,4.37
2018-12-23T06:16:07.750Z,4.72
2018-12-23T06:18:36.299Z,3.47
2018-12-23T06:21:05.101Z,5.10
2018-12-23T06:23:33.289Z,4.17
2018-12-23T06:26:01.489Z,4.60
2018-12-23T06:28:30.675Z,3.90
2018-12-23T06:31:01.114Z,3.37
2018-12-23T06:33:29.532Z,3.35
2018-12-23T06:35:58.407Z,3.10
2018-12-23T06:38:26.497Z,3.40
2018-12-23T06:40:55.507Z,4.23
2018-12-23T06:43:23.706Z,3.17
2018-12-23T06:45:52.411Z,3.70
2018-12-23T06:48:20.582Z,3.47
2018-12-23T06:50:48.661Z,3.03
2018-12-23T06:53:16.948Z,3.30
2018-12-23T06:55:45.114Z,3.23
2018-12-23T06:58:13.953Z,2.73
2018-12-23T07:00:42.161Z,3.33
2018-12-23T07:03:12.416Z,3.40
2018-12-23T07:05:41.541Z,3.23
2018-12-23T07:08:10.130Z,3.03
2018-12-23T07:10:38.367Z,3.10
2018-12-23T07:13:06.528Z,3.23
2018-12-23T07:15:35.624Z,3.30
2018-12-23T07:18:03.910Z,3.00
2018-12-23T07:20:32.129Z,2.87
2018-12-23T07:23:00.287Z,3.30
2018-12-23T07:25:28.755Z,3.63
2018-12-23T07:27:56.930Z,4.07
2018-12-23T07:30:25.947Z,3.87
2018-12-23T07:32:54.160Z,3.70
2018-12-23T07:35:22.915Z,3.47
2018-12-23T07:37:50.998Z,4.17
2018-12-23T07:40:19.189Z,3.13
2018-12-23T07:42:49.462Z,3.77
2018-12-23T07:45:17.632Z,4.63
2018-12-23T07:47:45.880Z,3.67
2018-12-23T07:50:15.445Z,3.90
2018-12-23T07:52:43.638Z,4.50
2018-12-23T07:55:11.844Z,4.87
2018-12-23T07:57:41.085Z,4.28
2018-12-23T08:00:09.650Z,3.95
2018-12-23T08:02:37.806Z,3.80
2018-12-23T08:05:06.185Z,3.93
2018-12-23T08:07:36.241Z,4.07
2018-12-23T08:10:05.134Z,3.07
2018-12-23T08:12:33.317Z,3.57
2018-12-23T08:15:01.668Z,4.47
2018-12-23T08:17:30.197Z,3.90
2018-12-23T08:19:58.302Z,4.20
2018-12-23T08:22:26.503Z,3.83
2018-12-23T08:24:54.708Z,4.97
2018-12-23T08:27:22.900Z,4.58
2018-12-23T08:29:50.991Z,4.10
2018-12-23T08:32:19.258Z,4.30
2018-12-23T08:34:47.416Z,3.80
2018-12-23T08:37:16.838Z,4.70
2018-12-23T08:39:44.960Z,3.30
2018-12-23T08:42:13.112Z,4.20
2018-12-23T08:44:42.260Z,3.67
2018-12-23T08:47:11.412Z,4.57
2018-12-23T08:49:39.588Z,3.93
2018-12-23T08:52:07.832Z,3.90
2018-12-23T08:54:37.061Z,3.85
2018-12-23T08:57:05.660Z,3.27
2018-12-23T08:59:33.969Z,4.20
2018-12-23T09:02:04.326Z,3.87
2018-12-23T09:04:32.495Z,3.90
2018-12-23T09:10:29.775Z,3.80
2018-12-23T09:12:58.136Z,3.87
2018-12-23T09:15:26.200Z,4.43
2018-12-23T09:17:54.291Z,3.47
2018-12-23T09:20:22.370Z,3.93
2018-12-23T09:22:50.444Z,4.37
2018-12-23T09:25:18.516Z,4.00
2018-12-23T09:27:46.596Z,4.17
2018-12-23T09:30:14.675Z,2.80
2018-12-23T09:32:42.911Z,4.63
2018-12-23T09:35:11.043Z,2.80
2018-12-23T09:37:39.117Z,3.60
2018-12-23T09:40:07.258Z,4.53
2018-12-23T09:42:35.354Z,3.53
2018-12-23T09:45:03.505Z,3.90
2018-12-23T09:47:31.562Z,3.47
2018-12-23T09:49:59.696Z,4.37
2018-12-23T09:52:27.832Z,3.27
2018-12-23T09:54:55.906Z,3.50
2018-12-23T09:57:23.996Z,3.37
2018-12-23T09:59:52.055Z,3.63
2018-12-23T10:02:20.229Z,3.00
2018-12-23T10:04:48.308Z,3.43
2018-12-23T10:07:16.387Z,4.47
2018-12-23T10:09:44.448Z,4.33
2018-12-23T10:12:13.295Z,4.08
2018-12-23T10:14:41.649Z,3.93
2018-12-23T10:17:09.780Z,3.27
2018-12-23T10:19:37.926Z,3.33
2018-12-23T10:22:06.137Z,4.03
2018-12-23T10:24:34.227Z,3.72
2018-12-23T10:27:02.308Z,3.22
2018-12-23T10:29:30.397Z,2.93
2018-12-23T10:31:58.468Z,3.13
2018-12-23T10:34:26.527Z,3.43
2018-12-23T10:36:54.700Z,2.40
2018-12-23T10:39:22.894Z,3.90
2018-12-23T10:41:50.967Z,3.33
2018-12-23T10:44:19.054Z,3.50
2018-12-23T10:46:47.224Z,3.63
2018-12-23T10:49:15.287Z,2.67
2018-12-23T10:51:43.366Z,3.17
2018-12-23T10:54:11.474Z,3.37
2018-12-23T10:56:39.535Z,2.70
2018-12-23T10:59:07.618Z,2.47
2018-12-23T11:01:35.682Z,3.53
2018-12-23T11:04:03.794Z,3.07
2018-12-23T11:06:31.854Z,3.40
2018-12-23T11:08:59.918Z,2.50
2018-12-23T11:11:27.974Z,2.85
2018-12-23T11:13:56.042Z,2.40
2018-12-23T11:16:24.142Z,2.90
2018-12-23T11:18:52.251Z,3.45
2018-12-23T11:21:20.322Z,2.50
2018-12-23T11:23:48.416Z,2.80
2018-12-23T11:26:16.503Z,3.00
2018-12-23T11:28:44.579Z,3.50
2018-12-23T11:31:12.638Z,3.10
2018-12-23T11:33:40.741Z,2.97
2018-12-23T11:36:08.802Z,3.10
2018-12-23T11:38:36.912Z,3.50
2018-12-23T11:41:04.991Z,3.30
2018-12-23T11:43:33.091Z,2.83
2018-12-23T11:46:01.155Z,3.10
2018-12-23T11:48:29.618Z,3.33
2018-12-23T11:50:57.679Z,2.80
2018-12-23T11:53:25.758Z,3.08
2018-12-23T11:55:53.912Z,2.80
2018-12-23T11:58:21.992Z,3.23
2018-12-23T12:00:50.071Z,2.47
2018-12-23T12:03:18.142Z,2.83
2018-12-23T12:05:46.216Z,2.85
2018-12-23T12:08:14.265Z,2.63
2018-12-23T12:10:42.394Z,1.98
2018-12-23T12:13:10.456Z,2.27
2018-12-23T12:15:39.290Z,2.37
2018-12-23T12:18:07.375Z,2.10
2018-12-23T12:20:35.450Z,2.20
2018-12-23T12:23:03.655Z,2.10
2018-12-23T12:25:31.811Z,2.37
2018-12-23T12:27:59.907Z,2.30
2018-12-23T12:30:27.963Z,2.07
2018-12-23T12:32:56.064Z,2.67
2018-12-23T12:35:24.148Z,2.40
2018-12-23T12:37:52.304Z,2.60
2018-12-23T12:40:20.455Z,2.20
2018-12-23T12:42:48.527Z,2.70
2018-12-23T12:45:16.714Z,2.55
2018-12-23T12:47:44.773Z,2.47
2018-12-23T12:50:12.994Z,2.65
2018-12-23T12:52:42.041Z,2.50
2018-12-23T12:55:10.123Z,2.47
2018-12-23T12:57:38.194Z,2.50
2018-12-23T13:00:08.983Z,1.73
2018-12-23T13:02:43.283Z,2.63
2018-12-23T13:05:17.731Z,2.87
2018-12-23T13:07:46.241Z,2.77
2018-12-23T13:10:14.570Z,2.20
2018-12-23T13:12:42.795Z,2.57
2018-12-23T13:15:13.371Z,2.90
2018-12-23T13:17:47.976Z,3.43
2018-12-23T13:20:16.296Z,3.30
2018-12-23T13:22:45.612Z,3.30
2018-12-23T13:25:13.896Z,2.57
2018-12-23T13:27:54.766Z,2.43
2018-12-23T13:30:22.886Z,2.77
2018-12-23T13:32:51.011Z,2.37
2018-12-23T13:35:20.156Z,2.87
2018-12-23T13:37:48.351Z,3.30
2018-12-23T13:40:23.057Z,2.83
2018-12-23T13:43:04.411Z,3.23
2018-12-23T13:50:04.044Z,2.97
2018-12-23T13:53:14.324Z,2.40
2018-12-23T13:56:41.829Z,2.80
2018-12-23T14:00:12.003Z,2.67
2018-12-23T14:03:22.210Z,3.20
2018-12-23T14:06:34.651Z,3.20
2018-12-23T14:09:44.493Z,2.92
2018-12-23T14:12:33.846Z,4.10
2018-12-23T14:16:02.894Z,3.67
2018-12-23T14:18:53.685Z,4.07
2018-12-23T14:21:36.179Z,4.60
2018-12-23T14:24:25.229Z,4.50
2018-12-23T14:30:47.085Z,4.93
2018-12-23T14:33:35.967Z,4.70
2018-12-23T14:36:25.043Z,4.20
2018-12-23T14:39:14.083Z,4.70
2018-12-23T14:42:02.988Z,4.50
2018-12-23T14:44:56.090Z,5.03
2018-12-23T14:47:25.957Z,4.90
2018-12-23T14:50:35.690Z,4.93
2018-12-23T14:53:24.677Z,4.80
2018-12-23T14:56:13.670Z,4.73
2018-12-23T14:59:02.471Z,4.37
2018-12-23T15:01:51.546Z,5.10
2018-12-23T15:04:40.438Z,5.20
2018-12-23T15:07:29.587Z,6.00
2018-12-23T15:10:18.469Z,5.90
2018-12-23T15:13:07.644Z,5.90
2018-12-23T15:15:56.844Z,6.03
2018-12-23T15:18:45.785Z,5.10
2018-12-23T15:21:34.767Z,4.77
2018-12-23T15:24:17.689Z,4.77
2018-12-23T15:27:06.610Z,4.17
2018-12-23T15:33:05.206Z,4.55
2018-12-23T15:38:48.758Z,3.30
2018-12-23T15:41:37.996Z,4.93
2018-12-23T15:44:27.053Z,4.53
2018-12-23T15:47:29.616Z,4.80
2018-12-23T15:50:07.674Z,5.60
2018-12-23T15:52:56.772Z,5.35
2018-12-23T15:55:46.002Z,5.90
2018-12-23T15:58:15.901Z,5.45
2018-12-23T16:01:04.897Z,5.67
2018-12-23T16:03:54.159Z,5.60
2018-12-23T16:06:43.025Z,5.30
2018-12-23T16:09:31.886Z,5.20
2018-12-23T16:12:20.736Z,4.63
2018-12-23T16:15:10.095Z,4.57
2018-12-23T16:17:58.916Z,5.53
2018-12-23T16:20:48.227Z,4.08
2018-12-23T16:23:30.742Z,2.33
2018-12-23T16:26:01.121Z,2.50
2018-12-23T16:28:50.065Z,2.43
2018-12-23T16:31:38.906Z,2.12
2018-12-23T16:34:27.902Z,2.47
2018-12-23T16:37:16.803Z,2.27
2018-12-23T16:40:26.553Z,2.22
2018-12-23T16:43:15.448Z,2.13
2018-12-23T16:46:19.125Z,2.33
2018-12-23T16:48:55.477Z,2.87
2018-12-23T16:51:44.736Z,2.35
2018-12-23T16:54:33.631Z,2.60
2018-12-23T16:57:22.773Z,2.60
2018-12-23T17:00:32.491Z,2.50
2018-12-23T17:03:02.383Z,2.70
2018-12-23T17:05:51.247Z,2.50
2018-12-23T17:08:40.107Z,3.03
2018-12-23T17:11:29.068Z,3.45
2018-12-23T17:14:19.553Z,4.20
2018-12-23T17:17:08.402Z,5.10
2018-12-23T17:19:57.465Z,5.90
2018-12-23T17:22:39.132Z,5.87
2018-12-23T17:25:28.147Z,7.25
2018-12-23T17:27:57.645Z,7.07
2018-12-23T17:30:46.561Z,7.53
2018-12-23T17:33:35.371Z,7.67
2018-12-23T17:36:24.312Z,8.35
2018-12-23T17:39:13.101Z,8.37
2018-12-23T17:42:02.310Z,8.73
2018-12-23T17:44:51.465Z,7.87
2018-12-23T17:47:40.387Z,8.03
2018-12-23T17:50:29.196Z,7.73
2018-12-23T17:53:19.813Z,7.40
2018-12-23T17:56:08.738Z,7.83
2018-12-23T17:58:57.606Z,7.30
2018-12-23T18:01:46.456Z,7.17
2018-12-23T18:04:16.077Z,7.22
2018-12-23T18:07:04.969Z,6.77
2018-12-23T18:09:53.908Z,7.23
2018-12-23T18:12:42.768Z,8.07
2018-12-23T18:15:31.634Z,7.80
2018-12-23T18:18:20.426Z,7.90
2018-12-23T18:21:09.364Z,7.10
2018-12-23T18:23:50.843Z,6.70
2018-12-23T18:26:45.061Z,6.30
2018-12-23T18:29:30.461Z,5.50
2018-12-23T18:32:01.423Z,5.40
2018-12-23T18:34:50.293Z,5.57
2018-12-23T18:37:39.156Z,5.63
2018-12-23T18:40:33.297Z,6.73
2018-12-23T18:43:19.043Z,6.30
2018-12-23T18:45:49.044Z,6.90
2018-12-23T18:48:37.980Z,6.40
2018-12-23T18:51:26.751Z,6.83
2018-12-23T18:54:15.661Z,6.42
2018-12-23T18:57:04.746Z,5.90
2018-12-23T18:59:54.494Z,6.70
2018-12-23T19:02:43.793Z,6.13
2018-12-23T19:05:32.887Z,6.37
2018-12-23T19:08:02.690Z,5.87
2018-12-23T19:11:12.421Z,4.87
2018-12-23T19:14:39.958Z,4.67
2018-12-23T19:18:07.656Z,4.57
2018-12-23T19:21:35.360Z,5.20
2018-12-23T19:24:19.369Z,3.90
2018-12-23T19:27:46.824Z,3.63
2018-12-23T19:31:14.842Z,3.83
2018-12-23T19:34:45.799Z,4.10
2018-12-23T19:38:13.251Z,3.72
2018-12-23T19:41:23.007Z,4.13
2018-12-23T19:44:44.900Z,4.37
2018-12-23T19:48:02.259Z,3.85
2018-12-23T19:51:12.244Z,3.25
2018-12-23T19:54:23.241Z,2.60
2018-12-23T19:57:33.064Z,2.77
2018-12-23T20:00:42.859Z,2.50
2018-12-23T20:03:52.635Z,3.23
2018-12-23T20:07:20.111Z,3.85
2018-12-23T20:10:47.599Z,2.93
2018-12-23T20:14:15.358Z,3.20
2018-12-23T20:17:43.090Z,2.37
2018-12-23T20:20:54.101Z,1.80
2018-12-23T20:23:42.291Z,1.90
2018-12-23T20:26:52.021Z,2.27
2018-12-23T20:30:19.509Z,1.93
2018-12-23T20:33:14.822Z,1.50
2018-12-23T20:36:42.507Z,1.12
2018-12-23T20:43:40.224Z,0.80
2018-12-23T20:46:49.939Z,1.10
2018-12-23T20:49:59.731Z,1.17
2018-12-23T20:53:09.447Z,1.40
2018-12-23T20:56:37.543Z,1.20
2018-12-23T20:59:47.659Z,1.83
2018-12-23T21:06:26.176Z,1.90
2018-12-23T21:09:53.982Z,1.80
2018-12-23T21:13:06.218Z,1.60
2018-12-23T21:16:33.832Z,1.80
2018-12-23T21:20:01.552Z,1.70
2018-12-23T21:23:09.640Z,1.40
2018-12-23T21:26:37.098Z,1.50
2018-12-23T21:29:37.289Z,1.77
2018-12-23T21:33:05.180Z,2.10
2018-12-23T21:36:13.201Z,1.77
2018-12-23T21:39:22.938Z,1.20
2018-12-23T21:42:32.670Z,1.30
2018-12-23T21:46:00.214Z,1.70
2018-12-23T21:49:09.944Z,1.87
2018-12-23T21:52:41.578Z,2.30
2018-12-23T21:55:51.293Z,2.00
2018-12-23T21:59:18.785Z,2.57
2018-12-23T22:02:46.338Z,3.20
2018-12-23T22:05:56.195Z,3.73
2018-12-23T22:09:23.788Z,3.30
2018-12-23T22:12:33.508Z,2.07
2018-12-23T22:15:22.323Z,1.40
2018-12-23T22:18:11.319Z,1.50
2018-12-23T22:21:00.217Z,1.80
2018-12-23T22:23:41.544Z,1.85
2018-12-23T22:26:30.437Z,1.50
2018-12-23T22:29:19.257Z,1.10
2018-12-23T22:32:08.622Z,1.40
2018-12-23T22:34:57.421Z,1.60
2018-12-23T22:37:47.146Z,1.40
2018-12-23T22:40:36.173Z,1.77
2018-12-23T22:43:25.208Z,2.20
2018-12-23T22:46:14.062Z,2.50
2018-12-23T22:48:43.589Z,2.90
2018-12-23T22:51:32.401Z,3.10
2018-12-23T22:54:22.040Z,2.35
2018-12-23T22:57:10.852Z,2.40
2018-12-23T22:59:40.340Z,3.40
2018-12-23T23:02:29.200Z,3.70
2018-12-23T23:05:18.015Z,4.10
2018-12-23T23:08:06.831Z,3.63
2018-12-23T23:10:55.968Z,3.97
2018-12-23T23:13:44.856Z,3.67
2018-12-23T23:16:35.515Z,4.17
2018-12-23T23:19:24.686Z,3.60
2018-12-23T23:22:13.491Z,3.90
2018-12-23T23:24:42.967Z,3.70
2018-12-23T23:27:31.807Z,4.17
2018-12-23T23:30:20.693Z,4.50
2018-12-23T23:36:19.164Z,4.00
2018-12-23T23:39:08.065Z,3.90
2018-12-23T23:41:58.475Z,3.50
2018-12-23T23:44:47.835Z,3.87
2018-12-23T23:47:36.786Z,3.43
2018-12-23T23:50:25.597Z,4.40
2018-12-23T23:53:14.437Z,4.77
2018-12-23T23:55:44.794Z,4.17
2018-12-23T23:58:15.093Z,4.87
